createdAt,value
2017-10-06T00:01:08.454Z,10.90
2017-10-06T00:03:36.267Z,10.90
2017-10-06T00:06:03.364Z,10.90
2017-10-06T00:08:31.180Z,10.90
2017-10-06T00:10:58.256Z,10.80
2017-10-06T00:13:25.309Z,10.90
2017-10-06T00:15:52.383Z,10.90
2017-10-06T00:18:19.462Z,10.90
2017-10-06T00:20:46.513Z,10.90
2017-10-06T00:23:13.603Z,10.90
2017-10-06T00:25:40.671Z,10.80
2017-10-06T00:28:08.521Z,10.70
2017-10-06T00:30:35.580Z,10.70
2017-10-06T00:33:02.657Z,10.60
2017-10-06T00:35:29.723Z,10.50
2017-10-06T00:37:56.776Z,10.60
2017-10-06T00:40:23.843Z,10.50
2017-10-06T00:42:50.907Z,10.60
2017-10-06T00:45:17.991Z,10.60
2017-10-06T00:47:45.070Z,10.60
2017-10-06T00:50:12.143Z,10.60
2017-10-06T00:52:39.228Z,10.60
2017-10-06T00:55:06.287Z,10.60
2017-10-06T00:57:33.423Z,10.60
2017-10-06T01:00:01.280Z,10.70
2017-10-06T01:02:29.108Z,10.70
2017-10-06T01:04:56.168Z,10.70
2017-10-06T01:07:23.273Z,10.70
2017-10-06T01:09:50.329Z,10.70
2017-10-06T01:12:17.384Z,10.60
2017-10-06T01:14:44.445Z,10.60
2017-10-06T01:17:12.308Z,10.60
2017-10-06T01:19:39.371Z,10.60
2017-10-06T01:22:06.451Z,10.70
2017-10-06T01:24:33.538Z,10.70
2017-10-06T01:27:00.595Z,10.60
2017-10-06T01:29:27.674Z,10.70
2017-10-06T01:31:54.744Z,10.70
2017-10-06T01:34:21.853Z,10.60
2017-10-06T01:36:48.910Z,10.70
2017-10-06T01:39:15.974Z,10.70
2017-10-06T01:41:43.055Z,10.70
2017-10-06T01:44:10.144Z,10.70
2017-10-06T01:46:37.210Z,10.70
2017-10-06T01:49:04.337Z,10.60
2017-10-06T01:51:31.391Z,10.60
2017-10-06T01:53:58.481Z,10.60
2017-10-06T01:56:25.535Z,10.70
2017-10-06T01:58:52.601Z,10.60
2017-10-06T02:01:19.669Z,10.60
2017-10-06T02:03:46.721Z,10.60
2017-10-06T02:06:13.776Z,10.60
2017-10-06T02:08:40.832Z,10.60
2017-10-06T02:11:07.911Z,10.60
2017-10-06T02:13:34.979Z,10.60
2017-10-06T02:16:02.814Z,10.70
2017-10-06T02:18:29.867Z,10.60
2017-10-06T02:20:56.976Z,10.60
2017-10-06T02:23:24.038Z,10.60
2017-10-06T02:25:51.085Z,10.60
2017-10-06T02:28:18.131Z,10.60
2017-10-06T02:30:45.202Z,10.60
2017-10-06T02:33:12.293Z,10.60
2017-10-06T02:35:39.375Z,10.50
2017-10-06T02:38:06.451Z,10.50
2017-10-06T02:40:33.513Z,10.50
2017-10-06T02:43:00.613Z,10.50
2017-10-06T02:45:27.715Z,10.50
2017-10-06T02:47:54.776Z,10.50
2017-10-06T02:50:21.838Z,10.50
2017-10-06T02:52:48.955Z,10.50
2017-10-06T02:55:16.016Z,10.50
2017-10-06T02:57:43.091Z,10.50
2017-10-06T03:00:10.900Z,10.60
2017-10-06T03:02:37.963Z,10.50
2017-10-06T03:05:05.022Z,10.60
2017-10-06T03:07:32.076Z,10.60
2017-10-06T03:09:59.139Z,10.60
2017-10-06T03:12:26.958Z,10.50
2017-10-06T03:14:54.794Z,10.50
2017-10-06T03:17:21.872Z,10.50
2017-10-06T03:19:48.940Z,10.60
2017-10-06T03:22:16.019Z,10.50
2017-10-06T03:24:43.853Z,10.60
2017-10-06T03:27:10.917Z,10.50
2017-10-06T03:29:37.976Z,10.60
2017-10-06T03:32:05.803Z,10.60
2017-10-06T03:34:32.847Z,10.50
2017-10-06T03:36:59.926Z,10.60
2017-10-06T03:39:26.991Z,10.60
2017-10-06T03:41:54.791Z,10.60
2017-10-06T03:44:21.856Z,10.50
2017-10-06T03:46:48.907Z,10.60
2017-10-06T03:49:16.738Z,10.60
2017-10-06T03:51:43.818Z,10.60
2017-10-06T03:54:10.906Z,10.60
2017-10-06T03:56:37.960Z,10.60
2017-10-06T03:59:05.787Z,10.60
2017-10-06T04:01:32.857Z,10.60
2017-10-06T04:03:59.906Z,10.60
2017-10-06T04:06:26.984Z,10.50
2017-10-06T04:08:54.788Z,10.50
2017-10-06T04:11:21.878Z,10.50
2017-10-06T04:13:48.959Z,10.50
2017-10-06T04:16:16.797Z,10.50
2017-10-06T04:18:43.852Z,10.50
2017-10-06T04:21:10.909Z,10.50
2017-10-06T04:23:38.743Z,10.60
2017-10-06T04:26:05.801Z,10.60
2017-10-06T04:28:32.864Z,10.60
2017-10-06T04:30:59.906Z,10.60
2017-10-06T04:33:26.987Z,10.60
2017-10-06T04:35:54.042Z,10.60
2017-10-06T04:38:21.147Z,10.60
2017-10-06T04:40:48.212Z,10.60
2017-10-06T04:43:15.270Z,10.60
2017-10-06T04:45:42.355Z,10.60
2017-10-06T04:48:09.420Z,10.50
2017-10-06T04:50:36.491Z,10.50
2017-10-06T04:53:03.578Z,10.60
2017-10-06T04:55:30.651Z,10.60
2017-10-06T04:57:57.704Z,10.60
2017-10-06T05:00:24.872Z,10.50
2017-10-06T05:02:51.945Z,10.50
2017-10-06T05:05:19.793Z,10.50
2017-10-06T05:07:47.637Z,10.50
2017-10-06T05:10:14.702Z,10.50
2017-10-06T05:12:41.771Z,10.50
2017-10-06T05:15:08.825Z,10.60
2017-10-06T05:17:36.656Z,10.60
2017-10-06T05:20:03.713Z,10.60
2017-10-06T05:22:30.776Z,10.60
2017-10-06T05:24:57.819Z,10.60
2017-10-06T05:27:24.895Z,10.60
2017-10-06T05:29:52.767Z,10.60
2017-10-06T05:32:20.605Z,10.60
2017-10-06T05:34:47.660Z,10.60
2017-10-06T05:37:14.718Z,10.60
2017-10-06T05:39:42.544Z,10.60
2017-10-06T05:42:09.635Z,10.60
2017-10-06T05:44:37.452Z,10.60
2017-10-06T05:47:04.507Z,10.60
2017-10-06T05:49:31.575Z,10.70
2017-10-06T05:51:58.651Z,10.70
2017-10-06T05:54:26.480Z,10.70
2017-10-06T05:56:53.811Z,10.70
2017-10-06T05:59:20.881Z,10.70
2017-10-06T06:01:48.936Z,10.70
2017-10-06T06:04:15.996Z,10.60
2017-10-06T06:06:43.055Z,10.70
2017-10-06T06:09:10.155Z,10.70
2017-10-06T06:11:37.213Z,10.70
2017-10-06T06:14:04.298Z,10.70
2017-10-06T06:16:31.376Z,10.80
2017-10-06T06:18:58.424Z,10.80
2017-10-06T06:21:25.495Z,10.70
2017-10-06T06:23:53.323Z,10.70
2017-10-06T06:26:20.395Z,10.70
2017-10-06T06:28:48.250Z,10.70
2017-10-06T06:31:15.307Z,10.70
2017-10-06T06:33:42.359Z,10.70
2017-10-06T06:36:10.191Z,10.60
2017-10-06T06:38:37.280Z,10.60
2017-10-06T06:41:05.128Z,10.70
2017-10-06T06:43:32.957Z,10.70
2017-10-06T06:46:00.191Z,10.70
2017-10-06T06:48:27.260Z,10.80
2017-10-06T06:50:54.766Z,10.80
2017-10-06T06:53:21.883Z,10.90
2017-10-06T06:55:48.974Z,10.90
2017-10-06T06:58:16.035Z,11.00
2017-10-06T07:00:43.117Z,11.00
2017-10-06T07:03:10.184Z,11.10
2017-10-06T07:05:37.256Z,11.10
2017-10-06T07:08:04.344Z,11.10
2017-10-06T07:10:31.394Z,11.10
2017-10-06T07:12:58.549Z,11.10
2017-10-06T07:15:25.659Z,11.10
2017-10-06T07:17:53.476Z,11.00
2017-10-06T07:20:20.531Z,11.00
2017-10-06T07:22:47.591Z,11.00
2017-10-06T07:25:14.668Z,10.90
2017-10-06T07:27:41.723Z,10.80
2017-10-06T07:30:09.551Z,10.50
2017-10-06T07:32:36.628Z,10.50
2017-10-06T07:35:03.687Z,10.50
2017-10-06T07:37:31.524Z,10.50
2017-10-06T07:39:58.611Z,10.40
2017-10-06T07:42:26.441Z,10.50
2017-10-06T07:44:53.514Z,10.50
2017-10-06T07:47:21.362Z,10.60
2017-10-06T07:49:48.530Z,10.50
2017-10-06T07:52:15.629Z,10.50
2017-10-06T07:54:42.683Z,10.50
2017-10-06T07:57:09.748Z,10.40
2017-10-06T07:59:36.812Z,10.40
2017-10-06T08:02:03.866Z,10.40
2017-10-06T08:04:30.930Z,10.40
2017-10-06T08:06:58.776Z,10.40
2017-10-06T08:09:25.851Z,10.40
2017-10-06T08:11:53.660Z,10.40
2017-10-06T08:14:20.708Z,10.40
2017-10-06T08:16:47.775Z,10.40
2017-10-06T08:19:14.837Z,10.50
2017-10-06T08:21:41.908Z,10.50
2017-10-06T08:24:09.747Z,10.60
2017-10-06T08:26:36.792Z,10.50
2017-10-06T08:29:03.863Z,10.50
2017-10-06T08:31:31.707Z,10.60
2017-10-06T08:33:58.766Z,10.60
2017-10-06T08:36:25.813Z,10.70
2017-10-06T08:38:53.115Z,10.70
2017-10-06T08:41:20.216Z,10.70
2017-10-06T08:43:47.283Z,10.70
2017-10-06T08:46:14.354Z,10.70
2017-10-06T08:48:41.472Z,10.80
2017-10-06T08:51:08.551Z,11.00
2017-10-06T08:53:35.622Z,11.00
2017-10-06T08:56:02.705Z,11.10
2017-10-06T08:58:29.794Z,11.10
2017-10-06T09:00:56.851Z,11.10
2017-10-06T09:03:23.920Z,11.20
2017-10-06T09:05:50.991Z,11.30
2017-10-06T09:08:18.035Z,11.30
2017-10-06T09:10:45.090Z,11.10
2017-10-06T09:13:12.143Z,11.10
2017-10-06T09:15:39.218Z,11.00
2017-10-06T09:18:07.039Z,11.00
2017-10-06T09:20:34.108Z,10.90
2017-10-06T09:23:01.160Z,10.90
2017-10-06T09:25:28.250Z,10.90
2017-10-06T09:27:55.318Z,11.00
2017-10-06T09:30:22.381Z,11.10
2017-10-06T09:32:49.434Z,11.20
2017-10-06T09:35:16.492Z,11.20
2017-10-06T09:37:43.553Z,11.30
2017-10-06T09:40:10.647Z,11.40
2017-10-06T09:42:37.712Z,11.40
2017-10-06T09:45:05.082Z,11.50
2017-10-06T09:47:32.205Z,11.60
2017-10-06T09:49:59.276Z,11.70
2017-10-06T09:52:26.339Z,11.70
2017-10-06T09:54:53.394Z,11.70
2017-10-06T09:57:20.448Z,11.70
2017-10-06T09:59:47.496Z,11.60
2017-10-06T10:02:14.550Z,11.50
2017-10-06T10:04:41.617Z,11.60
2017-10-06T10:07:09.453Z,11.40
2017-10-06T10:09:36.514Z,11.40
2017-10-06T10:12:03.579Z,11.40
2017-10-06T10:14:31.406Z,11.40
2017-10-06T10:16:58.463Z,11.50
2017-10-06T10:19:25.526Z,11.40
2017-10-06T10:21:52.581Z,11.40
2017-10-06T10:24:19.636Z,11.40
2017-10-06T10:26:47.477Z,11.40
2017-10-06T10:29:14.579Z,11.40
2017-10-06T10:31:41.663Z,11.60
2017-10-06T10:34:08.736Z,11.50
2017-10-06T10:36:35.798Z,11.60
2017-10-06T10:39:02.886Z,11.60
2017-10-06T10:41:29.959Z,11.60
2017-10-06T10:43:57.061Z,11.70
2017-10-06T10:46:24.112Z,11.80
2017-10-06T10:48:51.198Z,11.90
2017-10-06T10:51:18.320Z,11.90
2017-10-06T10:53:45.389Z,12.10
2017-10-06T10:56:12.450Z,12.30
2017-10-06T10:58:39.519Z,12.20
2017-10-06T11:01:06.567Z,12.30
2017-10-06T11:03:34.431Z,12.50
2017-10-06T11:06:01.523Z,12.50
2017-10-06T11:08:28.736Z,13.00
2017-10-06T11:10:55.799Z,13.80
2017-10-06T11:13:23.645Z,13.10
2017-10-06T11:15:50.708Z,13.00
2017-10-06T11:18:18.059Z,12.60
2017-10-06T11:20:45.137Z,12.30
2017-10-06T11:23:12.188Z,11.90
2017-10-06T11:25:39.240Z,11.80
2017-10-06T11:28:06.311Z,11.70
2017-10-06T11:30:33.375Z,11.60
2017-10-06T11:33:00.450Z,11.50
2017-10-06T11:35:27.548Z,11.60
2017-10-06T11:37:54.603Z,11.70
2017-10-06T11:40:21.671Z,11.80
2017-10-06T11:42:48.749Z,11.90
2017-10-06T11:45:16.067Z,11.90
2017-10-06T11:47:43.122Z,12.00
2017-10-06T11:50:10.188Z,11.90
2017-10-06T11:52:37.252Z,11.80
2017-10-06T11:55:04.345Z,11.90
2017-10-06T11:57:31.406Z,11.90
2017-10-06T11:59:58.463Z,11.80
2017-10-06T12:02:25.533Z,11.90
2017-10-06T12:04:52.611Z,11.90
2017-10-06T12:07:19.781Z,12.00
2017-10-06T12:09:46.829Z,11.90
2017-10-06T12:12:13.935Z,11.90
2017-10-06T12:14:41.079Z,12.00
2017-10-06T12:17:08.146Z,12.10
2017-10-06T12:19:35.970Z,12.10
2017-10-06T12:22:03.038Z,12.10
2017-10-06T12:24:30.101Z,12.10
2017-10-06T12:26:57.164Z,12.30
2017-10-06T12:29:24.350Z,12.40
2017-10-06T12:31:51.455Z,12.60
2017-10-06T12:34:19.274Z,13.80
2017-10-06T12:36:46.482Z,13.80
2017-10-06T12:39:13.534Z,14.30
2017-10-06T12:41:40.588Z,14.50
2017-10-06T12:44:07.650Z,14.90
2017-10-06T12:46:35.152Z,14.90
2017-10-06T12:49:02.686Z,15.00
2017-10-06T12:51:30.202Z,15.40
2017-10-06T12:53:57.714Z,15.30
2017-10-06T12:56:25.249Z,15.10
2017-10-06T12:58:52.819Z,15.10
2017-10-06T13:01:20.344Z,14.90
2017-10-06T13:03:48.619Z,14.50
2017-10-06T13:06:16.883Z,14.50
2017-10-06T13:08:44.383Z,14.40
2017-10-06T13:11:11.885Z,14.30
2017-10-06T13:13:39.385Z,13.80
2017-10-06T13:16:06.895Z,13.10
2017-10-06T13:18:33.956Z,12.70
2017-10-06T13:21:01.019Z,12.30
2017-10-06T13:23:28.829Z,11.30
2017-10-06T13:25:55.892Z,11.30
2017-10-06T13:28:23.028Z,11.00
2017-10-06T13:30:50.118Z,10.90
2017-10-06T13:33:17.189Z,10.90
2017-10-06T13:35:44.255Z,11.00
2017-10-06T13:38:11.315Z,11.10
2017-10-06T13:40:38.371Z,11.20
2017-10-06T13:43:05.432Z,11.20
2017-10-06T13:45:32.475Z,11.20
2017-10-06T13:47:59.544Z,11.10
2017-10-06T13:50:26.585Z,10.80
2017-10-06T13:52:53.650Z,10.80
2017-10-06T13:55:22.211Z,10.90
2017-10-06T13:57:55.184Z,10.90
2017-10-06T14:00:22.248Z,10.90
2017-10-06T14:02:49.316Z,10.80
2017-10-06T14:05:16.418Z,10.80
2017-10-06T14:07:43.531Z,10.80
2017-10-06T14:10:10.607Z,10.90
2017-10-06T14:12:38.451Z,11.00
2017-10-06T14:15:05.566Z,11.00
2017-10-06T14:17:32.691Z,11.00
2017-10-06T14:19:59.814Z,11.10
2017-10-06T14:22:27.649Z,11.10
2017-10-06T14:24:54.732Z,11.10
2017-10-06T14:27:22.544Z,11.10
2017-10-06T14:29:49.607Z,11.10
2017-10-06T14:32:20.333Z,11.20
2017-10-06T14:34:47.406Z,11.20
2017-10-06T14:37:14.464Z,11.20
2017-10-06T14:39:41.531Z,11.20
2017-10-06T14:42:09.458Z,11.40
2017-10-06T14:44:36.549Z,11.40
2017-10-06T14:47:03.626Z,11.50
2017-10-06T14:49:30.715Z,11.60
2017-10-06T14:51:57.829Z,11.60
2017-10-06T14:54:24.892Z,11.60
2017-10-06T14:56:51.956Z,11.70
2017-10-06T14:59:19.008Z,11.70
2017-10-06T15:01:52.726Z,11.70
2017-10-06T15:04:21.382Z,11.90
2017-10-06T15:06:48.444Z,11.80
2017-10-06T15:09:15.534Z,11.90
2017-10-06T15:11:42.588Z,11.90
2017-10-06T15:14:09.634Z,11.90
2017-10-06T15:16:36.680Z,11.90
2017-10-06T15:19:03.742Z,12.00
2017-10-06T15:21:30.802Z,12.10
2017-10-06T15:23:57.884Z,12.00
2017-10-06T15:26:24.959Z,12.00
2017-10-06T15:28:51.994Z,11.90
2017-10-06T15:31:19.059Z,11.90
2017-10-06T15:33:46.903Z,11.90
2017-10-06T15:36:13.963Z,11.90
2017-10-06T15:38:41.025Z,11.90
2017-10-06T15:41:08.102Z,11.90
2017-10-06T15:43:35.193Z,12.00
2017-10-06T15:46:02.259Z,12.00
2017-10-06T15:48:30.209Z,12.00
2017-10-06T15:50:57.263Z,12.00
2017-10-06T15:53:24.347Z,12.10
2017-10-06T15:55:51.410Z,12.20
2017-10-06T15:58:18.470Z,12.20
2017-10-06T16:00:45.514Z,12.10
2017-10-06T16:03:12.578Z,12.00
2017-10-06T16:05:39.808Z,12.00
2017-10-06T16:08:06.883Z,12.00
2017-10-06T16:10:34.722Z,12.00
2017-10-06T16:13:01.786Z,12.00
2017-10-06T16:15:28.963Z,12.00
2017-10-06T16:17:56.044Z,12.00
2017-10-06T16:20:23.894Z,11.90
2017-10-06T16:22:50.965Z,11.90
2017-10-06T16:25:18.789Z,12.00
2017-10-06T16:27:45.838Z,12.00
2017-10-06T16:30:12.928Z,12.00
2017-10-06T16:32:40.039Z,11.80
2017-10-06T16:35:07.174Z,11.90
2017-10-06T16:37:34.241Z,11.80
2017-10-06T16:40:01.314Z,11.80
2017-10-06T16:42:28.383Z,11.80
2017-10-06T16:44:55.451Z,11.80
2017-10-06T16:47:22.575Z,11.80
2017-10-06T16:49:50.454Z,11.70
2017-10-06T16:52:17.541Z,11.70
2017-10-06T16:54:44.603Z,11.70
2017-10-06T16:57:11.672Z,11.70
2017-10-06T16:59:38.757Z,11.70
2017-10-06T17:02:05.839Z,11.70
2017-10-06T17:04:32.913Z,11.70
2017-10-06T17:06:59.997Z,11.70
2017-10-06T17:09:27.035Z,11.70
2017-10-06T17:11:54.085Z,11.60
2017-10-06T17:14:22.076Z,11.60
2017-10-06T17:16:49.132Z,11.60
2017-10-06T17:19:16.223Z,11.60
2017-10-06T17:21:43.296Z,11.50
2017-10-06T17:24:11.108Z,11.50
2017-10-06T17:26:38.169Z,11.50
2017-10-06T17:29:05.231Z,11.50
2017-10-06T17:31:32.329Z,11.60
2017-10-06T17:33:59.383Z,11.50
2017-10-06T17:36:26.449Z,11.40
2017-10-06T17:38:53.495Z,11.40
2017-10-06T17:41:20.605Z,11.50
2017-10-06T17:43:47.655Z,11.40
2017-10-06T17:46:14.706Z,11.40
2017-10-06T17:48:41.772Z,11.40
2017-10-06T17:51:08.836Z,11.40
2017-10-06T17:53:35.933Z,11.40
2017-10-06T17:56:03.804Z,11.40
2017-10-06T17:58:31.625Z,11.40
2017-10-06T18:00:59.444Z,11.40
2017-10-06T18:03:26.503Z,11.40
2017-10-06T18:05:53.563Z,11.40
2017-10-06T18:08:20.813Z,11.40
2017-10-06T18:10:49.285Z,11.40
2017-10-06T18:13:16.354Z,11.40
2017-10-06T18:15:43.423Z,11.40
2017-10-06T18:18:10.544Z,11.40
2017-10-06T18:20:37.748Z,11.40
2017-10-06T18:23:04.819Z,11.40
2017-10-06T18:25:32.669Z,11.30
2017-10-06T18:28:00.502Z,11.30
2017-10-06T18:30:27.579Z,11.30
2017-10-06T18:32:54.674Z,11.30
2017-10-06T18:35:21.744Z,11.30
2017-10-06T18:37:48.826Z,11.30
2017-10-06T18:40:15.912Z,11.30
2017-10-06T18:42:43.002Z,11.20
2017-10-06T18:45:10.064Z,11.10
2017-10-06T18:47:37.154Z,11.10
2017-10-06T18:50:04.969Z,11.10
2017-10-06T18:52:32.041Z,11.00
2017-10-06T18:54:59.105Z,11.10
2017-10-06T18:57:26.934Z,11.00
2017-10-06T18:59:54.010Z,11.00
2017-10-06T19:02:21.084Z,11.00
2017-10-06T19:04:48.248Z,11.00
2017-10-06T19:07:15.420Z,11.00
2017-10-06T19:09:42.478Z,11.00
2017-10-06T19:12:09.539Z,11.00
2017-10-06T19:14:36.600Z,11.00
2017-10-06T19:17:03.667Z,10.90
2017-10-06T19:19:30.732Z,10.90
2017-10-06T19:21:57.858Z,10.90
2017-10-06T19:24:25.707Z,11.00
2017-10-06T19:26:53.238Z,11.00
2017-10-06T19:29:20.300Z,11.00
2017-10-06T19:31:47.407Z,11.00
2017-10-06T19:34:14.465Z,11.00
2017-10-06T19:36:41.553Z,11.00
2017-10-06T19:39:08.638Z,11.00
2017-10-06T19:41:36.486Z,11.00
2017-10-06T19:44:03.574Z,11.00
2017-10-06T19:46:30.648Z,11.00
2017-10-06T19:48:57.720Z,11.00
2017-10-06T19:51:24.812Z,11.00
2017-10-06T19:58:57.594Z,11.00
2017-10-06T20:03:57.578Z,10.90
2017-10-06T20:08:57.206Z,10.90
2017-10-06T20:11:24.262Z,10.80
2017-10-06T20:21:30.403Z,10.70
2017-10-06T20:31:37.109Z,10.70
2017-10-06T20:39:09.366Z,10.60
2017-10-06T20:41:36.428Z,10.60
2017-10-06T20:46:35.936Z,10.60
2017-10-06T20:49:03.022Z,10.50
2017-10-06T20:56:35.108Z,10.50
2017-10-06T21:01:34.792Z,10.50
2017-10-06T21:04:01.868Z,10.50
2017-10-06T21:11:34.639Z,10.40
2017-10-06T21:14:01.723Z,10.40
2017-10-06T21:16:28.769Z,10.40
2017-10-06T21:26:33.357Z,10.40
2017-10-06T21:29:01.179Z,10.30
2017-10-06T21:34:01.658Z,10.30
2017-10-06T21:44:06.385Z,10.30
2017-10-06T21:51:39.163Z,10.30
2017-10-06T21:54:06.247Z,10.30
2017-10-06T21:56:33.306Z,10.30
2017-10-06T21:59:00.444Z,10.30
2017-10-06T22:06:32.401Z,10.30
2017-10-06T22:14:04.528Z,10.30
2017-10-06T22:24:10.054Z,10.30
2017-10-06T22:26:37.154Z,10.20
2017-10-06T22:34:09.180Z,10.30
2017-10-06T22:36:36.245Z,10.30
2017-10-06T22:39:03.322Z,10.30
2017-10-06T22:51:40.525Z,10.10
2017-10-06T23:06:51.797Z,10.10
2017-10-06T23:16:57.116Z,10.00
2017-10-06T23:21:56.570Z,10.00
2017-10-06T23:32:00.992Z,10.00
2017-10-06T23:34:28.200Z,10.00
2017-10-06T23:39:27.818Z,9.90
2017-10-06T23:44:27.351Z,10.00
2017-10-06T23:51:59.459Z,10.00
2017-10-06T23:54:26.519Z,10.00
2017-10-06T23:56:53.597Z,10.00
